createdAt,value
2018-11-12T00:01:20.988Z,16.30
2018-11-12T00:03:31.979Z,16.20
2018-11-12T00:05:45.109Z,16.20
2018-11-12T00:07:58.990Z,16.10
2018-11-12T00:10:06.711Z,16.20
2018-11-12T00:12:14.140Z,16.20
2018-11-12T00:14:24.376Z,16.10
2018-11-12T00:16:32.967Z,16.10
2018-11-12T00:18:39.323Z,16.00
2018-11-12T00:20:51.426Z,16.20
2018-11-12T00:23:00.976Z,16.20
2018-11-12T00:25:09.347Z,16.30
2018-11-12T00:27:21.245Z,16.30
2018-11-12T00:29:31.360Z,16.40
2018-11-12T00:31:40.999Z,16.40
2018-11-12T00:33:50.012Z,16.50
2018-11-12T00:35:56.086Z,16.50
2018-11-12T00:38:09.024Z,16.50
2018-11-12T00:40:20.479Z,16.30
2018-11-12T00:42:31.471Z,16.20
2018-11-12T00:44:43.280Z,16.20
2018-11-12T00:46:53.054Z,16.20
2018-11-12T00:49:02.675Z,16.10
2018-11-12T00:51:12.553Z,16.00
2018-11-12T00:53:23.340Z,16.00
2018-11-12T00:55:32.880Z,16.00
2018-11-12T00:57:42.537Z,15.90
2018-11-12T00:59:53.853Z,15.80
2018-11-12T01:02:05.328Z,15.80
2018-11-12T01:04:16.435Z,15.90
2018-11-12T01:06:29.420Z,16.00
2018-11-12T01:08:38.080Z,16.00
2018-11-12T01:10:44.532Z,16.10
2018-11-12T01:12:54.911Z,16.10
2018-11-12T01:15:07.224Z,16.10
2018-11-12T01:17:15.389Z,16.20
2018-11-12T01:19:23.558Z,16.20
2018-11-12T01:21:34.398Z,16.30
2018-11-12T01:23:47.038Z,16.30
2018-11-12T01:25:57.106Z,16.40
2018-11-12T01:28:05.363Z,16.40
2018-11-12T01:30:26.326Z,16.40
2018-11-12T01:32:35.372Z,16.40
2018-11-12T01:34:43.164Z,16.40
2018-11-12T01:36:51.795Z,16.50
2018-11-12T01:39:03.753Z,16.50
2018-11-12T01:41:10.548Z,16.60
2018-11-12T01:43:17.831Z,16.60
2018-11-12T01:45:26.541Z,16.60
2018-11-12T01:47:35.047Z,16.50
2018-11-12T01:49:45.765Z,16.50
2018-11-12T01:51:59.616Z,16.40
2018-11-12T01:54:08.097Z,16.50
2018-11-12T01:56:16.268Z,16.50
2018-11-12T01:58:23.230Z,16.40
2018-11-12T02:00:34.995Z,16.50
2018-11-12T02:02:47.373Z,16.60
2018-11-12T02:04:56.943Z,16.70
2018-11-12T02:07:05.545Z,16.70
2018-11-12T02:09:14.350Z,16.80
2018-11-12T02:11:23.076Z,16.90
2018-11-12T02:13:34.390Z,17.00
2018-11-12T02:15:47.760Z,17.00
2018-11-12T02:17:53.972Z,17.00
2018-11-12T02:20:03.267Z,16.90
2018-11-12T02:22:16.004Z,16.20
2018-11-12T02:24:22.471Z,15.90
2018-11-12T02:26:31.056Z,16.10
2018-11-12T02:28:41.900Z,16.30
2018-11-12T02:30:51.803Z,16.40
2018-11-12T02:33:03.075Z,16.50
2018-11-12T02:35:11.040Z,16.60
2018-11-12T02:37:18.804Z,16.00
2018-11-12T02:39:40.925Z,15.70
2018-11-12T02:41:49.143Z,16.00
2018-11-12T02:44:01.946Z,16.10
2018-11-12T02:46:12.196Z,16.20
2018-11-12T02:48:23.161Z,15.70
2018-11-12T02:50:32.352Z,15.60
2018-11-12T02:52:44.382Z,15.60
2018-11-12T02:56:55.673Z,15.80
2018-11-12T02:59:02.832Z,16.00
2018-11-12T03:01:07.955Z,16.10
2018-11-12T03:03:13.245Z,16.10
2018-11-12T03:05:22.327Z,15.90
2018-11-12T03:07:27.153Z,15.90
2018-11-12T03:09:32.103Z,15.80
2018-11-12T03:11:37.618Z,15.90
2018-11-12T03:13:42.761Z,16.00
2018-11-12T03:15:54.650Z,16.20
2018-11-12T03:18:06.301Z,16.20
2018-11-12T03:20:21.677Z,16.00
2018-11-12T03:22:26.789Z,15.80
2018-11-12T03:24:37.144Z,15.90
2018-11-12T03:26:48.441Z,15.70
2018-11-12T03:28:53.578Z,15.70
2018-11-12T03:31:00.593Z,15.50
2018-11-12T03:33:12.657Z,15.30
2018-11-12T03:35:30.664Z,15.20
2018-11-12T03:37:35.532Z,15.00
2018-11-12T03:39:41.367Z,15.20
2018-11-12T03:41:48.684Z,15.50
2018-11-12T03:43:54.377Z,15.70
2018-11-12T03:45:59.187Z,15.80
2018-11-12T03:48:06.582Z,16.00
2018-11-12T03:50:18.050Z,16.00
2018-11-12T03:52:22.641Z,16.10
2018-11-12T03:54:27.413Z,16.10
2018-11-12T03:56:35.996Z,16.30
2018-11-12T03:58:42.616Z,16.30
2018-11-12T04:00:48.450Z,16.30
2018-11-12T04:02:54.049Z,16.30
2018-11-12T04:04:58.165Z,16.20
2018-11-12T04:07:03.361Z,16.30
2018-11-12T04:09:12.744Z,16.30
2018-11-12T04:11:20.021Z,16.30
2018-11-12T04:13:28.154Z,16.30
2018-11-12T04:15:35.688Z,16.40
2018-11-12T04:17:40.739Z,16.30
2018-11-12T04:19:45.746Z,16.00
2018-11-12T04:21:52.851Z,15.80
2018-11-12T04:24:11.242Z,16.00
2018-11-12T04:26:15.777Z,16.30
2018-11-12T04:28:22.993Z,16.40
2018-11-12T04:30:37.401Z,16.30
2018-11-12T04:32:43.839Z,16.30
2018-11-12T04:34:53.652Z,16.40
2018-11-12T04:37:02.702Z,16.50
2018-11-12T04:39:09.273Z,16.60
2018-11-12T04:41:19.885Z,16.60
2018-11-12T04:43:26.980Z,16.70
2018-11-12T04:45:35.143Z,16.70
2018-11-12T04:47:41.534Z,16.80
2018-11-12T04:49:47.106Z,16.70
2018-11-12T04:51:52.921Z,16.60
2018-11-12T04:53:59.637Z,16.50
2018-11-12T04:56:08.682Z,16.40
2018-11-12T04:58:14.239Z,16.10
2018-11-12T05:00:28.781Z,16.20
2018-11-12T05:02:33.075Z,16.00
2018-11-12T05:04:40.689Z,16.00
2018-11-12T05:06:45.704Z,15.70
2018-11-12T05:08:51.935Z,15.80
2018-11-12T05:11:00.296Z,15.80
2018-11-12T05:13:16.372Z,15.60
2018-11-12T05:15:30.125Z,15.70
2018-11-12T05:17:36.371Z,15.80
2018-11-12T05:19:48.861Z,15.70
2018-11-12T05:22:03.809Z,15.60
2018-11-12T05:24:09.912Z,15.50
2018-11-12T05:26:15.562Z,15.50
2018-11-12T05:28:23.597Z,15.60
2018-11-12T05:30:29.272Z,15.70
2018-11-12T05:32:38.359Z,15.80
2018-11-12T05:34:42.873Z,15.80
2018-11-12T05:36:47.683Z,15.90
2018-11-12T05:38:56.964Z,15.80
2018-11-12T05:41:07.995Z,16.00
2018-11-12T05:43:14.155Z,15.80
2018-11-12T05:45:30.997Z,15.50
2018-11-12T05:47:35.826Z,15.50
2018-11-12T05:49:45.376Z,15.80
2018-11-12T05:51:52.617Z,15.90
2018-11-12T05:53:57.522Z,15.90
2018-11-12T05:56:10.391Z,16.10
2018-11-12T05:58:19.097Z,16.30
2018-11-12T06:00:33.021Z,16.30
2018-11-12T06:02:39.934Z,16.60
2018-11-12T06:04:54.333Z,16.70
2018-11-12T06:07:02.609Z,16.60
2018-11-12T06:09:25.922Z,16.60
2018-11-12T06:11:47.494Z,16.50
2018-11-12T06:13:58.266Z,16.70
2018-11-12T06:16:10.771Z,16.80
2018-11-12T06:18:21.583Z,16.90
2018-11-12T06:20:31.148Z,17.00
2018-11-12T06:22:36.848Z,17.00
2018-11-12T06:24:44.826Z,17.10
2018-11-12T06:26:52.071Z,17.10
2018-11-12T06:29:05.124Z,17.20
2018-11-12T06:31:43.723Z,17.20
2018-11-12T06:33:55.655Z,17.20
2018-11-12T06:36:21.831Z,17.30
2018-11-12T06:38:58.324Z,17.20
2018-11-12T06:41:32.437Z,16.70
2018-11-12T06:43:54.719Z,16.50
2018-11-12T06:46:34.677Z,16.70
2018-11-12T06:49:29.758Z,16.90
2018-11-12T06:52:29.315Z,16.70
2018-11-12T06:54:59.237Z,16.70
2018-11-12T06:57:16.297Z,16.90
2018-11-12T06:59:29.550Z,16.90
2018-11-12T07:01:41.140Z,16.90
2018-11-12T07:03:50.824Z,16.60
2018-11-12T07:05:57.946Z,16.50
2018-11-12T07:08:09.827Z,16.60
2018-11-12T07:10:23.613Z,16.60
2018-11-12T07:12:37.426Z,16.70
2018-11-12T07:14:48.149Z,16.90
2018-11-12T07:16:59.685Z,17.10
2018-11-12T07:19:15.660Z,17.30
2018-11-12T07:21:28.687Z,17.50
2018-11-12T07:23:41.268Z,17.60
2018-11-12T07:25:51.389Z,17.60
2018-11-12T07:28:00.204Z,17.60
2018-11-12T07:30:09.148Z,17.70
2018-11-12T07:32:18.273Z,17.80
2018-11-12T07:34:31.854Z,17.70
2018-11-12T07:36:41.634Z,17.90
2018-11-12T07:38:59.389Z,17.90
2018-11-12T07:41:11.094Z,17.90
2018-11-12T07:43:21.091Z,18.00
2018-11-12T07:45:32.069Z,18.10
2018-11-12T07:47:45.687Z,18.10
2018-11-12T07:49:55.249Z,18.20
2018-11-12T07:52:07.501Z,18.20
2018-11-12T07:54:21.580Z,18.20
2018-11-12T07:56:28.527Z,18.20
2018-11-12T07:58:42.201Z,18.10
2018-11-12T08:00:54.862Z,18.20
2018-11-12T08:03:10.021Z,18.20
2018-11-12T08:05:23.794Z,18.20
2018-11-12T08:07:31.738Z,18.30
2018-11-12T08:09:41.691Z,18.30
2018-11-12T08:11:52.320Z,18.40
2018-11-12T08:14:03.844Z,18.40
2018-11-12T08:16:10.025Z,18.30
2018-11-12T08:18:18.606Z,18.40
2018-11-12T08:20:29.080Z,18.40
2018-11-12T08:22:39.347Z,18.40
2018-11-12T08:24:54.806Z,18.50
2018-11-12T08:27:03.330Z,18.60
2018-11-12T08:29:12.868Z,18.60
2018-11-12T08:31:31.738Z,18.60
2018-11-12T08:33:43.202Z,18.60
2018-11-12T08:35:56.408Z,18.60
2018-11-12T08:38:09.194Z,18.80
2018-11-12T08:40:22.484Z,18.60
2018-11-12T08:42:36.302Z,18.60
2018-11-12T08:44:50.197Z,18.60
2018-11-12T08:47:00.425Z,18.40
2018-11-12T08:49:15.332Z,18.40
2018-11-12T08:51:25.808Z,18.60
2018-11-12T08:53:38.806Z,18.60
2018-11-12T08:55:48.652Z,18.60
2018-11-12T08:58:06.011Z,18.70
2018-11-12T09:00:19.283Z,18.50
2018-11-12T09:02:30.592Z,18.60
2018-11-12T09:04:39.213Z,18.60
2018-11-12T09:06:58.403Z,18.80
2018-11-12T09:09:15.739Z,18.80
2018-11-12T09:11:27.776Z,19.00
2018-11-12T09:16:00.965Z,18.90
2018-11-12T09:18:08.038Z,18.90
2018-11-12T09:20:21.520Z,19.00
2018-11-12T09:22:39.582Z,19.00
2018-11-12T09:24:54.150Z,19.10
2018-11-12T09:31:56.923Z,19.20
2018-11-12T09:34:07.964Z,19.30
2018-11-12T09:36:18.725Z,18.90
2018-11-12T09:38:28.692Z,18.90
2018-11-12T09:40:40.360Z,18.90
2018-11-12T09:42:48.380Z,19.00
2018-11-12T09:44:56.935Z,19.10
2018-11-12T09:47:08.187Z,19.10
2018-11-12T09:49:24.847Z,18.90
2018-11-12T09:51:41.794Z,18.90
2018-11-12T09:53:51.097Z,19.10
2018-11-12T09:56:06.987Z,19.20
2018-11-12T09:58:15.141Z,19.40
2018-11-12T10:00:26.649Z,19.60
2018-11-12T10:02:37.545Z,19.80
2018-11-12T10:07:40.705Z,19.90
2018-11-12T10:12:22.264Z,19.90
2018-11-12T10:14:37.796Z,19.90
2018-11-12T10:16:50.289Z,19.90
2018-11-12T10:18:56.802Z,19.90
2018-11-12T10:21:16.852Z,19.90
2018-11-12T10:23:28.949Z,19.80
2018-11-12T10:25:40.137Z,19.60
2018-11-12T10:27:48.729Z,19.60
2018-11-12T10:29:56.569Z,19.70
2018-11-12T10:32:05.773Z,19.80
2018-11-12T10:34:14.783Z,19.90
2018-11-12T10:36:24.448Z,19.90
2018-11-12T10:38:36.168Z,19.60
2018-11-12T10:40:47.509Z,19.60
2018-11-12T10:42:56.294Z,19.40
2018-11-12T10:45:12.037Z,19.40
2018-11-12T10:47:25.192Z,19.50
2018-11-12T10:49:35.391Z,19.30
2018-11-12T10:51:49.845Z,19.40
2018-11-12T10:54:09.913Z,19.60
2018-11-12T10:56:20.403Z,19.60
2018-11-12T10:58:49.805Z,19.70
2018-11-12T11:01:07.855Z,19.70
2018-11-12T11:03:20.760Z,19.70
2018-11-12T11:05:41.328Z,19.70
2018-11-12T11:07:48.802Z,19.80
2018-11-12T11:10:01.578Z,19.80
2018-11-12T11:12:14.008Z,19.70
2018-11-12T11:16:55.950Z,19.60
2018-11-12T11:19:10.872Z,19.70
2018-11-12T11:21:19.685Z,19.80
2018-11-12T11:23:36.344Z,19.90
2018-11-12T11:25:44.951Z,20.00
2018-11-12T11:30:06.584Z,20.10
2018-11-12T11:32:21.230Z,20.00
2018-11-12T11:34:29.023Z,20.10
2018-11-12T11:36:36.300Z,20.10
2018-11-12T11:38:45.692Z,20.10
2018-11-12T11:41:21.316Z,20.20
2018-11-12T11:43:32.491Z,20.00
2018-11-12T11:45:40.867Z,20.10
2018-11-12T11:47:50.463Z,20.10
2018-11-12T11:50:08.590Z,20.20
2018-11-12T11:52:19.421Z,20.20
2018-11-12T11:54:35.437Z,20.30
2018-11-12T12:00:28.980Z,20.30
2018-11-12T12:02:52.262Z,20.20
2018-11-12T12:05:09.850Z,20.10
2018-11-12T12:07:19.708Z,19.90
2018-11-12T12:09:30.604Z,19.90
2018-11-12T12:11:41.020Z,19.90
2018-11-12T12:13:53.428Z,19.90
2018-11-12T12:16:01.892Z,19.90
2018-11-12T12:18:13.400Z,19.90
2018-11-12T12:20:27.828Z,19.90
2018-11-12T12:22:32.460Z,20.00
2018-11-12T12:24:40.080Z,20.10
2018-11-12T12:26:46.206Z,20.20
2018-11-12T12:29:04.439Z,20.40
2018-11-12T12:31:15.489Z,20.50
2018-11-12T12:33:41.120Z,20.50
2018-11-12T12:35:55.666Z,20.70
2018-11-12T12:38:10.900Z,20.90
2018-11-12T12:40:22.684Z,21.10
2018-11-12T12:42:33.375Z,21.30
2018-11-12T12:44:45.219Z,21.50
2018-11-12T12:47:00.022Z,21.60
2018-11-12T12:49:12.742Z,21.60
2018-11-12T12:51:21.871Z,21.60
2018-11-12T12:53:35.209Z,21.50
2018-11-12T12:55:58.944Z,21.30
2018-11-12T12:58:13.472Z,21.40
2018-11-12T13:00:33.752Z,21.60
2018-11-12T13:02:43.048Z,21.80
2018-11-12T13:04:54.837Z,21.80
2018-11-12T13:07:04.184Z,21.70
2018-11-12T13:09:19.236Z,21.70
2018-11-12T13:11:33.768Z,21.60
2018-11-12T13:13:47.571Z,21.60
2018-11-12T13:16:01.715Z,21.70
2018-11-12T13:18:12.992Z,21.90
2018-11-12T13:20:25.755Z,21.90
2018-11-12T13:22:38.054Z,21.80
2018-11-12T13:24:50.613Z,21.60
2018-11-12T13:27:04.200Z,21.30
2018-11-12T13:29:18.342Z,21.50
2018-11-12T13:36:10.965Z,22.20
2018-11-12T13:38:21.966Z,22.60
2018-11-12T13:40:41.563Z,22.90
2018-11-12T13:43:02.815Z,23.00
2018-11-12T13:45:26.729Z,23.20
2018-11-12T13:47:50.811Z,23.40
2018-11-12T13:52:30.771Z,23.60
2018-11-12T13:54:38.045Z,23.70
2018-11-12T13:56:52.655Z,23.70
2018-11-12T13:59:09.729Z,23.70
2018-11-12T14:01:16.988Z,23.70
2018-11-12T14:03:27.624Z,23.70
2018-11-12T14:05:35.800Z,23.70
2018-11-12T14:07:47.231Z,23.80
2018-11-12T14:09:54.138Z,23.70
2018-11-12T14:12:03.416Z,23.60
2018-11-12T14:14:17.318Z,23.50
2018-11-12T14:16:22.334Z,23.40
2018-11-12T14:18:40.206Z,23.40
2018-11-12T14:20:47.228Z,23.40
2018-11-12T14:22:59.863Z,23.50
2018-11-12T14:25:27.234Z,23.40
2018-11-12T14:27:39.671Z,23.20
2018-11-12T14:29:54.631Z,23.10
2018-11-12T14:32:15.289Z,22.90
2018-11-12T14:36:45.789Z,23.00
2018-11-12T14:38:53.630Z,23.10
2018-11-12T14:41:13.588Z,23.20
2018-11-12T14:43:29.270Z,23.40
2018-11-12T14:47:57.645Z,23.20
2018-11-12T14:50:10.919Z,23.00
2018-11-12T14:52:25.046Z,22.60
2018-11-12T14:54:34.160Z,22.30
2018-11-12T14:57:17.969Z,22.10
2018-11-12T14:59:29.620Z,22.00
2018-11-12T15:01:52.319Z,22.00
2018-11-12T15:04:06.371Z,21.90
2018-11-12T15:06:16.512Z,21.70
2018-11-12T15:08:34.461Z,21.80
2018-11-12T15:10:46.003Z,21.90
2018-11-12T15:12:50.499Z,21.90
2018-11-12T15:14:54.702Z,21.90
2018-11-12T15:17:06.432Z,21.90
2018-11-12T15:19:16.854Z,21.80
2018-11-12T15:21:30.269Z,21.60
2018-11-12T15:23:37.920Z,21.50
2018-11-12T15:25:50.448Z,21.20
2018-11-12T15:28:04.006Z,21.00
2018-11-12T15:30:23.076Z,20.90
2018-11-12T15:32:35.668Z,20.50
2018-11-12T15:34:47.870Z,20.30
2018-11-12T15:37:01.253Z,20.30
2018-11-12T15:39:29.223Z,19.90
2018-11-12T15:41:41.577Z,20.00
2018-11-12T15:43:56.356Z,20.30
2018-11-12T15:46:12.773Z,20.20
2018-11-12T15:48:23.598Z,20.40
2018-11-12T15:50:37.397Z,20.50
2018-11-12T15:52:51.180Z,20.60
2018-11-12T15:55:07.385Z,20.60
2018-11-12T15:57:21.225Z,20.50
2018-11-12T16:01:46.504Z,20.30
2018-11-12T16:03:54.946Z,20.30
2018-11-12T16:06:09.556Z,20.20
2018-11-12T16:08:24.744Z,20.10
2018-11-12T16:10:44.446Z,20.10
2018-11-12T16:12:57.940Z,20.10
2018-11-12T16:15:09.536Z,20.00
2018-11-12T16:17:16.576Z,19.90
2018-11-12T16:19:26.872Z,19.90
2018-11-12T16:21:38.300Z,19.80
2018-11-12T16:23:47.582Z,19.80
2018-11-12T16:26:00.025Z,19.70
2018-11-12T16:28:23.121Z,19.50
2018-11-12T16:30:37.760Z,19.60
2018-11-12T16:32:47.626Z,19.40
2018-11-12T16:34:59.307Z,19.50
2018-11-12T16:37:09.690Z,19.60
2018-11-12T16:39:23.321Z,19.70
2018-11-12T16:41:32.542Z,19.70
2018-11-12T16:43:42.021Z,19.50
2018-11-12T16:45:47.880Z,19.40
2018-11-12T16:47:57.056Z,19.00
2018-11-12T16:50:11.946Z,18.20
2018-11-12T16:52:23.925Z,17.50
2018-11-12T16:54:32.251Z,17.10
2018-11-12T16:56:47.373Z,16.90
2018-11-12T16:58:56.293Z,16.70
2018-11-12T17:01:08.609Z,16.60
2018-11-12T17:03:23.607Z,16.60
2018-11-12T17:05:37.383Z,16.60
2018-11-12T17:07:45.947Z,16.50
2018-11-12T17:10:03.404Z,16.50
2018-11-12T17:12:29.667Z,16.50
2018-11-12T17:14:39.461Z,16.50
2018-11-12T17:16:51.763Z,16.40
2018-11-12T17:19:01.023Z,16.40
2018-11-12T17:21:31.122Z,16.40
2018-11-12T17:23:47.587Z,16.50
2018-11-12T17:25:58.833Z,16.50
2018-11-12T17:28:12.158Z,16.50
2018-11-12T17:30:26.218Z,16.50
2018-11-12T17:32:41.240Z,16.50
2018-11-12T17:34:47.792Z,16.50
2018-11-12T17:36:59.982Z,16.50
2018-11-12T17:39:11.449Z,16.50
2018-11-12T17:41:25.248Z,16.50
2018-11-12T17:43:37.177Z,16.60
2018-11-12T17:45:44.284Z,16.70
2018-11-12T17:47:56.105Z,16.70
2018-11-12T17:50:08.685Z,16.80
2018-11-12T17:52:21.252Z,16.90
2018-11-12T17:54:34.560Z,16.90
2018-11-12T17:56:47.479Z,16.80
2018-11-12T17:58:57.680Z,16.90
2018-11-12T18:01:09.528Z,16.90
2018-11-12T18:03:23.262Z,16.90
2018-11-12T18:05:31.413Z,16.90
2018-11-12T18:07:44.553Z,17.00
2018-11-12T18:09:52.477Z,16.90
2018-11-12T18:12:03.300Z,17.00
2018-11-12T18:14:50.244Z,17.00
2018-11-12T18:17:03.797Z,17.10
2018-11-12T18:19:18.641Z,17.10
2018-11-12T18:21:33.164Z,17.10
2018-11-12T18:23:43.324Z,17.10
2018-11-12T18:25:52.356Z,17.20
2018-11-12T18:28:06.014Z,17.20
2018-11-12T18:30:27.101Z,17.20
2018-11-12T18:34:30.078Z,17.20
2018-11-12T18:36:45.136Z,17.30
2018-11-12T18:38:57.117Z,17.20
2018-11-12T18:41:08.293Z,17.20
2018-11-12T18:43:16.943Z,17.10
2018-11-12T18:45:33.409Z,17.10
2018-11-12T18:47:48.080Z,17.10
2018-11-12T18:49:59.358Z,17.10
2018-11-12T18:52:10.230Z,17.00
2018-11-12T18:54:26.230Z,17.00
2018-11-12T18:56:44.308Z,17.00
2018-11-12T18:59:00.579Z,17.00
2018-11-12T19:01:11.542Z,17.00
2018-11-12T19:03:17.068Z,17.10
2018-11-12T19:05:30.943Z,17.10
2018-11-12T19:07:46.310Z,17.10
2018-11-12T19:09:54.715Z,17.10
2018-11-12T19:12:06.311Z,17.00
2018-11-12T19:14:21.895Z,16.70
2018-11-12T19:16:34.514Z,16.60
2018-11-12T19:18:53.052Z,16.70
2018-11-12T19:21:05.446Z,16.70
2018-11-12T19:23:12.556Z,16.40
2018-11-12T19:25:22.473Z,16.30
2018-11-12T19:27:33.783Z,16.40
2018-11-12T19:29:43.000Z,16.40
2018-11-12T19:31:51.255Z,16.40
2018-11-12T19:34:01.708Z,16.50
2018-11-12T19:36:11.264Z,16.50
2018-11-12T19:38:21.560Z,16.50
2018-11-12T19:40:33.155Z,16.40
2018-11-12T19:42:41.528Z,16.30
2018-11-12T19:44:53.261Z,16.20
2018-11-12T19:47:05.219Z,16.30
2018-11-12T19:49:18.481Z,16.40
2018-11-12T19:51:24.505Z,16.50
2018-11-12T19:53:39.443Z,16.70
2018-11-12T19:55:57.724Z,16.80
2018-11-12T19:58:07.326Z,16.70
2018-11-12T20:02:40.326Z,16.70
2018-11-12T20:04:53.088Z,16.90
2018-11-12T20:07:08.747Z,16.90
2018-11-12T20:11:48.217Z,16.90
2018-11-12T20:14:02.329Z,16.30
2018-11-12T20:16:14.765Z,16.30
2018-11-12T20:18:24.095Z,16.50
2018-11-12T20:20:34.804Z,16.80
2018-11-12T20:22:48.184Z,16.90
2018-11-12T20:24:57.792Z,17.00
2018-11-12T20:27:08.703Z,17.10
2018-11-12T20:29:20.129Z,17.10
2018-11-12T20:31:31.762Z,17.10
2018-11-12T20:33:41.186Z,17.20
2018-11-12T20:35:54.180Z,17.20
2018-11-12T20:38:02.451Z,17.20
2018-11-12T20:40:17.436Z,17.20
2018-11-12T20:42:32.343Z,17.20
2018-11-12T20:47:28.796Z,17.30
2018-11-12T20:49:39.145Z,17.30
2018-11-12T20:51:59.638Z,17.30
2018-11-12T20:54:15.789Z,17.20
2018-11-12T20:56:25.751Z,17.10
2018-11-12T20:58:33.213Z,17.20
2018-11-12T21:00:45.882Z,17.20
2018-11-12T21:02:58.188Z,17.40
2018-11-12T21:07:29.972Z,17.60
2018-11-12T21:09:40.607Z,17.70
2018-11-12T21:11:58.322Z,17.90
2018-11-12T21:14:07.061Z,18.00
2018-11-12T21:16:18.744Z,18.00
2018-11-12T21:18:24.372Z,18.00
2018-11-12T21:20:32.001Z,18.10
2018-11-12T21:22:42.909Z,18.00
2018-11-12T21:24:50.774Z,17.90
2018-11-12T21:26:58.541Z,17.90
2018-11-12T21:29:12.270Z,17.80
2018-11-12T21:33:37.386Z,17.80
2018-11-12T21:35:51.397Z,17.80
2018-11-12T21:38:06.872Z,17.60
2018-11-12T21:40:25.993Z,17.60
2018-11-12T21:42:35.658Z,17.70
2018-11-12T21:44:45.951Z,17.70
2018-11-12T21:46:53.308Z,17.80
2018-11-12T21:49:04.295Z,17.90
2018-11-12T21:51:18.435Z,17.90
2018-11-12T21:53:30.073Z,17.90
2018-11-12T21:55:37.591Z,17.90
2018-11-12T21:57:47.283Z,18.00
2018-11-12T21:59:55.123Z,18.00
2018-11-12T22:02:08.927Z,18.00
2018-11-12T22:04:16.070Z,18.00
2018-11-12T22:06:28.793Z,18.00
2018-11-12T22:08:39.756Z,17.90
2018-11-12T22:11:18.717Z,17.80
2018-11-12T22:13:27.580Z,17.80
2018-11-12T22:15:40.008Z,17.90
2018-11-12T22:17:52.457Z,17.90
2018-11-12T22:20:10.215Z,17.80
2018-11-12T22:22:26.295Z,17.80
2018-11-12T22:24:32.461Z,17.80
2018-11-12T22:26:42.698Z,17.80
2018-11-12T22:28:50.546Z,17.80
2018-11-12T22:30:59.448Z,17.80
2018-11-12T22:33:10.611Z,17.80
2018-11-12T22:35:23.296Z,17.80
2018-11-12T22:37:43.399Z,17.80
2018-11-12T22:39:52.071Z,17.80
2018-11-12T22:42:12.852Z,17.80
2018-11-12T22:44:27.787Z,17.70
2018-11-12T22:46:34.705Z,17.60
2018-11-12T22:48:42.482Z,17.60
2018-11-12T22:50:53.128Z,17.60
2018-11-12T22:53:02.387Z,17.50
2018-11-12T22:55:17.306Z,17.50
2018-11-12T22:57:28.483Z,17.50
2018-11-12T22:59:35.396Z,17.50
2018-11-12T23:01:48.240Z,17.50
2018-11-12T23:03:59.900Z,17.50
2018-11-12T23:06:12.940Z,17.50
2018-11-12T23:08:18.827Z,17.40
2018-11-12T23:10:28.988Z,17.30
2018-11-12T23:12:35.455Z,17.30
2018-11-12T23:14:48.822Z,17.30
2018-11-12T23:16:58.922Z,17.30
2018-11-12T23:19:07.263Z,17.20
2018-11-12T23:21:18.310Z,17.10
2018-11-12T23:23:28.549Z,17.20
2018-11-12T23:25:35.290Z,17.10
2018-11-12T23:27:44.336Z,17.10
2018-11-12T23:29:51.170Z,17.00
2018-11-12T23:32:03.153Z,17.00
2018-11-12T23:34:11.961Z,17.00
2018-11-12T23:36:22.024Z,16.90
2018-11-12T23:38:32.554Z,16.90
2018-11-12T23:40:42.383Z,16.90
2018-11-12T23:42:55.385Z,17.00
2018-11-12T23:45:07.925Z,17.00
2018-11-12T23:47:14.826Z,17.10
2018-11-12T23:49:23.769Z,17.10
2018-11-12T23:51:34.275Z,17.20
2018-11-12T23:53:45.896Z,17.30
2018-11-12T23:55:54.296Z,17.20
2018-11-12T23:58:03.593Z,17.30
